sensor_id;sensor_type;location;lat;lon;timestamp;P1;durP1;ratioP1;P2;durP2;ratioP2
44670;SDS011;48397;53.016;-2.260;2023-03-14T00:01:17;3.67;;;1.42;;
44670;SDS011;48397;53.016;-2.260;2023-03-14T00:03:50;10.23;;;2.58;;
44670;SDS011;48397;53.016;-2.260;2023-03-14T00:06:20;3.17;;;1.40;;
44670;SDS011;48397;53.016;-2.260;2023-03-14T00:08:48;6.70;;;2.22;;
44670;SDS011;48397;53.016;-2.260;2023-03-14T00:11:19;4.95;;;2.13;;
44670;SDS011;48397;53.016;-2.260;2023-03-14T00:13:48;11.23;;;3.47;;
44670;SDS011;48397;53.016;-2.260;2023-03-14T00:16:17;10.85;;;2.30;;
44670;SDS011;48397;53.016;-2.260;2023-03-14T00:21:15;5.97;;;1.80;;
44670;SDS011;48397;53.016;-2.260;2023-03-14T00:23:43;12.15;;;2.42;;
44670;SDS011;48397;53.016;-2.260;2023-03-14T00:26:13;5.93;;;2.20;;
44670;SDS011;48397;53.016;-2.260;2023-03-14T00:28:44;8.32;;;1.90;;
44670;SDS011;48397;53.016;-2.260;2023-03-14T00:31:14;7.10;;;2.00;;
44670;SDS011;48397;53.016;-2.260;2023-03-14T00:33:43;6.80;;;1.52;;
44670;SDS011;48397;53.016;-2.260;2023-03-14T00:36:12;6.85;;;1.60;;
44670;SDS011;48397;53.016;-2.260;2023-03-14T00:38:42;4.03;;;1.55;;
44670;SDS011;48397;53.016;-2.260;2023-03-14T00:41:14;8.23;;;2.08;;
44670;SDS011;48397;53.016;-2.260;2023-03-14T00:43:46;3.25;;;0.93;;
44670;SDS011;48397;53.016;-2.260;2023-03-14T00:46:14;6.95;;;1.77;;
44670;SDS011;48397;53.016;-2.260;2023-03-14T00:48:44;6.97;;;1.50;;
44670;SDS011;48397;53.016;-2.260;2023-03-14T00:51:13;2.60;;;1.30;;
44670;SDS011;48397;53.016;-2.260;2023-03-14T00:53:43;6.47;;;1.40;;
44670;SDS011;48397;53.016;-2.260;2023-03-14T00:56:12;2.47;;;1.20;;
44670;SDS011;48397;53.016;-2.260;2023-03-14T00:58:42;3.67;;;0.95;;
44670;SDS011;48397;53.016;-2.260;2023-03-14T01:01:13;8.48;;;1.42;;
44670;SDS011;48397;53.016;-2.260;2023-03-14T01:03:42;5.80;;;1.02;;
44670;SDS011;48397;53.016;-2.260;2023-03-14T01:06:11;6.40;;;1.70;;
44670;SDS011;48397;53.016;-2.260;2023-03-14T01:08:42;3.22;;;1.20;;
44670;SDS011;48397;53.016;-2.260;2023-03-14T01:11:12;5.35;;;1.20;;
44670;SDS011;48397;53.016;-2.260;2023-03-14T01:13:46;7.40;;;2.10;;
44670;SDS011;48397;53.016;-2.260;2023-03-14T01:16:15;2.70;;;1.45;;
44670;SDS011;48397;53.016;-2.260;2023-03-14T01:18:45;6.15;;;1.48;;
44670;SDS011;48397;53.016;-2.260;2023-03-14T01:21:16;3.25;;;1.08;;
44670;SDS011;48397;53.016;-2.260;2023-03-14T01:23:51;5.93;;;1.13;;
44670;SDS011;48397;53.016;-2.260;2023-03-14T01:26:20;4.15;;;1.10;;
44670;SDS011;48397;53.016;-2.260;2023-03-14T01:28:50;4.45;;;1.05;;
44670;SDS011;48397;53.016;-2.260;2023-03-14T01:31:21;6.07;;;1.38;;
44670;SDS011;48397;53.016;-2.260;2023-03-14T01:33:50;5.55;;;1.35;;
44670;SDS011;48397;53.016;-2.260;2023-03-14T01:38:46;6.90;;;1.30;;
44670;SDS011;48397;53.016;-2.260;2023-03-14T01:41:21;4.25;;;1.70;;
44670;SDS011;48397;53.016;-2.260;2023-03-14T01:43:52;3.35;;;1.10;;
44670;SDS011;48397;53.016;-2.260;2023-03-14T01:51:59;3.28;;;1.05;;
44670;SDS011;48397;53.016;-2.260;2023-03-14T01:57:34;2.63;;;1.08;;
44670;SDS011;48397;53.016;-2.260;2023-03-14T02:00:21;1.77;;;0.95;;
44670;SDS011;48397;53.016;-2.260;2023-03-14T02:03:01;5.43;;;1.27;;
44670;SDS011;48397;53.016;-2.260;2023-03-14T02:05:34;6.25;;;1.38;;
44670;SDS011;48397;53.016;-2.260;2023-03-14T02:08:18;3.00;;;1.30;;
44670;SDS011;48397;53.016;-2.260;2023-03-14T02:10:56;6.03;;;2.92;;
44670;SDS011;48397;53.016;-2.260;2023-03-14T02:13:43;7.38;;;2.03;;
44670;SDS011;48397;53.016;-2.260;2023-03-14T02:16:31;8.02;;;3.15;;
44670;SDS011;48397;53.016;-2.260;2023-03-14T02:19:22;9.07;;;2.42;;
44670;SDS011;48397;53.016;-2.260;2023-03-14T02:22:08;4.18;;;2.17;;
44670;SDS011;48397;53.016;-2.260;2023-03-14T02:25:08;3.38;;;2.35;;
44670;SDS011;48397;53.016;-2.260;2023-03-14T02:27:36;7.05;;;1.90;;
44670;SDS011;48397;53.016;-2.260;2023-03-14T02:30:12;2.85;;;1.67;;
44670;SDS011;48397;53.016;-2.260;2023-03-14T02:32:48;2.80;;;1.08;;
44670;SDS011;48397;53.016;-2.260;2023-03-14T02:35:24;3.05;;;1.45;;
44670;SDS011;48397;53.016;-2.260;2023-03-14T02:37:56;6.75;;;1.90;;
44670;SDS011;48397;53.016;-2.260;2023-03-14T02:40:47;2.38;;;1.30;;
44670;SDS011;48397;53.016;-2.260;2023-03-14T02:43:17;4.43;;;1.73;;
44670;SDS011;48397;53.016;-2.260;2023-03-14T02:45:50;5.47;;;2.25;;
44670;SDS011;48397;53.016;-2.260;2023-03-14T02:50:52;2.97;;;1.50;;
44670;SDS011;48397;53.016;-2.260;2023-03-14T02:53:25;3.58;;;1.67;;
44670;SDS011;48397;53.016;-2.260;2023-03-14T02:56:02;2.70;;;1.30;;
44670;SDS011;48397;53.016;-2.260;2023-03-14T02:58:33;5.88;;;1.95;;
44670;SDS011;48397;53.016;-2.260;2023-03-14T03:01:12;4.65;;;1.67;;
44670;SDS011;48397;53.016;-2.260;2023-03-14T03:03:40;5.47;;;1.90;;
44670;SDS011;48397;53.016;-2.260;2023-03-14T03:06:08;4.53;;;1.92;;
44670;SDS011;48397;53.016;-2.260;2023-03-14T03:08:37;5.88;;;2.15;;
44670;SDS011;48397;53.016;-2.260;2023-03-14T03:11:05;4.28;;;2.40;;
44670;SDS011;48397;53.016;-2.260;2023-03-14T03:13:34;6.25;;;1.80;;
44670;SDS011;48397;53.016;-2.260;2023-03-14T03:16:04;2.75;;;1.25;;
44670;SDS011;48397;53.016;-2.260;2023-03-14T03:18:34;3.47;;;1.40;;
44670;SDS011;48397;53.016;-2.260;2023-03-14T03:21:02;5.72;;;2.55;;
44670;SDS011;48397;53.016;-2.260;2023-03-14T03:23:31;6.65;;;2.60;;
44670;SDS011;48397;53.016;-2.260;2023-03-14T03:25:59;5.30;;;2.15;;
44670;SDS011;48397;53.016;-2.260;2023-03-14T03:28:27;7.80;;;2.00;;
44670;SDS011;48397;53.016;-2.260;2023-03-14T03:30:56;5.30;;;1.77;;
44670;SDS011;48397;53.016;-2.260;2023-03-14T03:33:24;2.70;;;1.50;;
44670;SDS011;48397;53.016;-2.260;2023-03-14T03:35:53;1.85;;;1.05;;
44670;SDS011;48397;53.016;-2.260;2023-03-14T03:38:28;5.57;;;1.70;;
44670;SDS011;48397;53.016;-2.260;2023-03-14T03:40:58;4.50;;;1.75;;
44670;SDS011;48397;53.016;-2.260;2023-03-14T03:43:30;7.45;;;2.63;;
44670;SDS011;48397;53.016;-2.260;2023-03-14T03:46:03;4.80;;;2.03;;
44670;SDS011;48397;53.016;-2.260;2023-03-14T03:48:33;3.50;;;2.00;;
44670;SDS011;48397;53.016;-2.260;2023-03-14T03:51:04;3.50;;;1.25;;
44670;SDS011;48397;53.016;-2.260;2023-03-14T03:53:33;5.80;;;2.10;;
44670;SDS011;48397;53.016;-2.260;2023-03-14T03:56:05;4.30;;;2.25;;
44670;SDS011;48397;53.016;-2.260;2023-03-14T03:58:33;3.33;;;1.35;;
44670;SDS011;48397;53.016;-2.260;2023-03-14T04:01:02;4.35;;;1.30;;
44670;SDS011;48397;53.016;-2.260;2023-03-14T04:03:30;4.32;;;1.17;;
44670;SDS011;48397;53.016;-2.260;2023-03-14T04:06:03;2.35;;;1.33;;
44670;SDS011;48397;53.016;-2.260;2023-03-14T04:08:35;5.07;;;2.58;;
44670;SDS011;48397;53.016;-2.260;2023-03-14T04:11:03;3.88;;;1.85;;
44670;SDS011;48397;53.016;-2.260;2023-03-14T04:13:47;4.75;;;1.67;;
44670;SDS011;48397;53.016;-2.260;2023-03-14T04:16:24;3.80;;;2.28;;
44670;SDS011;48397;53.016;-2.260;2023-03-14T04:19:01;6.05;;;2.47;;
44670;SDS011;48397;53.016;-2.260;2023-03-14T04:21:31;5.20;;;2.13;;
44670;SDS011;48397;53.016;-2.260;2023-03-14T04:23:59;4.47;;;1.38;;
44670;SDS011;48397;53.016;-2.260;2023-03-14T04:26:30;3.75;;;1.50;;
44670;SDS011;48397;53.016;-2.260;2023-03-14T04:28:58;3.80;;;1.50;;
44670;SDS011;48397;53.016;-2.260;2023-03-14T04:31:26;4.32;;;2.13;;
44670;SDS011;48397;53.016;-2.260;2023-03-14T04:33:54;4.68;;;2.03;;
44670;SDS011;48397;53.016;-2.260;2023-03-14T04:39:04;5.23;;;1.67;;
44670;SDS011;48397;53.016;-2.260;2023-03-14T04:41:35;2.50;;;1.27;;
44670;SDS011;48397;53.016;-2.260;2023-03-14T04:44:03;3.70;;;2.08;;
44670;SDS011;48397;53.016;-2.260;2023-03-14T04:49:01;2.13;;;1.40;;
44670;SDS011;48397;53.016;-2.260;2023-03-14T04:51:28;7.93;;;3.42;;
44670;SDS011;48397;53.016;-2.260;2023-03-14T04:53:56;6.68;;;2.13;;
44670;SDS011;48397;53.016;-2.260;2023-03-14T04:56:24;5.95;;;2.45;;
44670;SDS011;48397;53.016;-2.260;2023-03-14T04:58:52;5.10;;;2.00;;
44670;SDS011;48397;53.016;-2.260;2023-03-14T05:01:20;7.00;;;2.85;;
44670;SDS011;48397;53.016;-2.260;2023-03-14T05:04:04;4.65;;;1.63;;
44670;SDS011;48397;53.016;-2.260;2023-03-14T05:07:00;5.25;;;1.98;;
44670;SDS011;48397;53.016;-2.260;2023-03-14T05:09:54;3.67;;;1.52;;
44670;SDS011;48397;53.016;-2.260;2023-03-14T05:15:08;4.60;;;2.10;;
44670;SDS011;48397;53.016;-2.260;2023-03-14T05:17:49;4.57;;;1.42;;
44670;SDS011;48397;53.016;-2.260;2023-03-14T05:20:41;6.63;;;2.60;;
44670;SDS011;48397;53.016;-2.260;2023-03-14T05:23:41;3.53;;;1.83;;
44670;SDS011;48397;53.016;-2.260;2023-03-14T05:29:15;5.60;;;1.83;;
44670;SDS011;48397;53.016;-2.260;2023-03-14T05:31:52;4.27;;;2.00;;
44670;SDS011;48397;53.016;-2.260;2023-03-14T05:34:52;4.17;;;1.63;;
44670;SDS011;48397;53.016;-2.260;2023-03-14T05:37:30;4.17;;;1.50;;
44670;SDS011;48397;53.016;-2.260;2023-03-14T05:40:14;3.93;;;1.70;;
44670;SDS011;48397;53.016;-2.260;2023-03-14T05:43:03;3.07;;;1.50;;
44670;SDS011;48397;53.016;-2.260;2023-03-14T05:45:52;4.23;;;1.83;;
44670;SDS011;48397;53.016;-2.260;2023-03-14T05:48:38;6.50;;;2.20;;
44670;SDS011;48397;53.016;-2.260;2023-03-14T05:51:21;6.53;;;1.93;;
44670;SDS011;48397;53.016;-2.260;2023-03-14T05:54:02;5.73;;;2.47;;
44670;SDS011;48397;53.016;-2.260;2023-03-14T05:56:40;4.33;;;2.07;;
44670;SDS011;48397;53.016;-2.260;2023-03-14T05:59:14;8.30;;;2.80;;
44670;SDS011;48397;53.016;-2.260;2023-03-14T06:01:56;6.13;;;1.80;;
44670;SDS011;48397;53.016;-2.260;2023-03-14T06:04:27;4.40;;;2.00;;
44670;SDS011;48397;53.016;-2.260;2023-03-14T06:06:58;9.90;;;3.80;;
44670;SDS011;48397;53.016;-2.260;2023-03-14T06:09:26;8.68;;;3.55;;
44670;SDS011;48397;53.016;-2.260;2023-03-14T06:11:57;10.90;;;3.00;;
44670;SDS011;48397;53.016;-2.260;2023-03-14T06:14:26;10.43;;;3.33;;
44670;SDS011;48397;53.016;-2.260;2023-03-14T06:16:53;13.68;;;4.30;;
44670;SDS011;48397;53.016;-2.260;2023-03-14T06:19:23;15.50;;;4.17;;
44670;SDS011;48397;53.016;-2.260;2023-03-14T06:21:52;6.90;;;2.40;;
44670;SDS011;48397;53.016;-2.260;2023-03-14T06:24:19;6.15;;;2.38;;
44670;SDS011;48397;53.016;-2.260;2023-03-14T06:26:50;6.70;;;2.47;;
44670;SDS011;48397;53.016;-2.260;2023-03-14T06:29:17;16.17;;;3.42;;
44670;SDS011;48397;53.016;-2.260;2023-03-14T06:31:47;12.63;;;3.30;;
44670;SDS011;48397;53.016;-2.260;2023-03-14T06:34:18;5.43;;;1.67;;
44670;SDS011;48397;53.016;-2.260;2023-03-14T06:36:46;9.05;;;1.90;;
44670;SDS011;48397;53.016;-2.260;2023-03-14T06:39:14;12.27;;;2.67;;
44670;SDS011;48397;53.016;-2.260;2023-03-14T06:41:45;7.43;;;2.10;;
44670;SDS011;48397;53.016;-2.260;2023-03-14T06:44:13;14.70;;;3.25;;
44670;SDS011;48397;53.016;-2.260;2023-03-14T06:46:41;15.65;;;2.90;;
44670;SDS011;48397;53.016;-2.260;2023-03-14T06:49:09;8.82;;;1.40;;
44670;SDS011;48397;53.016;-2.260;2023-03-14T06:51:37;8.52;;;1.95;;
44670;SDS011;48397;53.016;-2.260;2023-03-14T06:54:07;7.75;;;2.00;;
44670;SDS011;48397;53.016;-2.260;2023-03-14T06:56:35;3.15;;;1.83;;
44670;SDS011;48397;53.016;-2.260;2023-03-14T06:59:03;12.77;;;2.85;;
44670;SDS011;48397;53.016;-2.260;2023-03-14T07:01:32;5.93;;;1.40;;
44670;SDS011;48397;53.016;-2.260;2023-03-14T07:04:06;13.40;;;1.90;;
44670;SDS011;48397;53.016;-2.260;2023-03-14T07:06:37;19.80;;;3.03;;
44670;SDS011;48397;53.016;-2.260;2023-03-14T07:09:06;19.90;;;3.20;;
44670;SDS011;48397;53.016;-2.260;2023-03-14T07:11:38;10.90;;;1.80;;
44670;SDS011;48397;53.016;-2.260;2023-03-14T07:14:08;13.17;;;2.47;;
44670;SDS011;48397;53.016;-2.260;2023-03-14T07:16:36;11.27;;;2.07;;
44670;SDS011;48397;53.016;-2.260;2023-03-14T07:19:03;4.90;;;1.80;;
44670;SDS011;48397;53.016;-2.260;2023-03-14T07:24:05;13.03;;;1.77;;
44670;SDS011;48397;53.016;-2.260;2023-03-14T07:26:33;12.52;;;2.00;;
44670;SDS011;48397;53.016;-2.260;2023-03-14T07:29:01;8.00;;;1.85;;
44670;SDS011;48397;53.016;-2.260;2023-03-14T07:31:31;16.43;;;2.63;;
44670;SDS011;48397;53.016;-2.260;2023-03-14T07:33:59;12.37;;;2.80;;
44670;SDS011;48397;53.016;-2.260;2023-03-14T07:36:31;4.43;;;1.10;;
44670;SDS011;48397;53.016;-2.260;2023-03-14T07:38:59;13.73;;;3.15;;
44670;SDS011;48397;53.016;-2.260;2023-03-14T07:41:43;11.03;;;2.33;;
44670;SDS011;48397;53.016;-2.260;2023-03-14T07:44:40;16.15;;;2.95;;
44670;SDS011;48397;53.016;-2.260;2023-03-14T07:47:08;15.60;;;2.88;;
44670;SDS011;48397;53.016;-2.260;2023-03-14T07:49:36;6.90;;;2.53;;
44670;SDS011;48397;53.016;-2.260;2023-03-14T07:52:04;16.67;;;3.25;;
44670;SDS011;48397;53.016;-2.260;2023-03-14T07:54:32;10.20;;;2.20;;
44670;SDS011;48397;53.016;-2.260;2023-03-14T07:57:00;15.20;;;3.35;;
44670;SDS011;48397;53.016;-2.260;2023-03-14T07:59:28;6.10;;;2.13;;
44670;SDS011;48397;53.016;-2.260;2023-03-14T08:01:56;8.13;;;1.77;;
44670;SDS011;48397;53.016;-2.260;2023-03-14T08:04:24;18.33;;;4.18;;
44670;SDS011;48397;53.016;-2.260;2023-03-14T08:06:51;14.88;;;3.72;;
44670;SDS011;48397;53.016;-2.260;2023-03-14T08:09:21;9.90;;;3.13;;
44670;SDS011;48397;53.016;-2.260;2023-03-14T08:14:17;12.30;;;2.70;;
44670;SDS011;48397;53.016;-2.260;2023-03-14T08:19:12;11.70;;;2.83;;
44670;SDS011;48397;53.016;-2.260;2023-03-14T08:21:40;19.10;;;3.13;;
44670;SDS011;48397;53.016;-2.260;2023-03-14T08:24:09;21.90;;;3.15;;
44670;SDS011;48397;53.016;-2.260;2023-03-14T08:26:37;8.43;;;2.33;;
44670;SDS011;48397;53.016;-2.260;2023-03-14T08:29:04;18.17;;;2.58;;
44670;SDS011;48397;53.016;-2.260;2023-03-14T08:31:32;16.52;;;3.30;;
44670;SDS011;48397;53.016;-2.260;2023-03-14T08:34:01;6.03;;;1.70;;
44670;SDS011;48397;53.016;-2.260;2023-03-14T08:36:29;14.00;;;2.72;;
44670;SDS011;48397;53.016;-2.260;2023-03-14T08:38:58;11.10;;;2.30;;
44670;SDS011;48397;53.016;-2.260;2023-03-14T08:41:26;6.85;;;2.17;;
44670;SDS011;48397;53.016;-2.260;2023-03-14T08:43:53;15.25;;;3.33;;
44670;SDS011;48397;53.016;-2.260;2023-03-14T08:46:21;13.27;;;3.30;;
44670;SDS011;48397;53.016;-2.260;2023-03-14T08:48:49;23.33;;;2.55;;
44670;SDS011;48397;53.016;-2.260;2023-03-14T08:51:17;9.50;;;3.00;;
44670;SDS011;48397;53.016;-2.260;2023-03-14T08:53:44;9.65;;;3.20;;
44670;SDS011;48397;53.016;-2.260;2023-03-14T08:56:12;16.33;;;3.58;;
44670;SDS011;48397;53.016;-2.260;2023-03-14T08:58:40;13.98;;;3.13;;
44670;SDS011;48397;53.016;-2.260;2023-03-14T09:03:37;18.60;;;3.47;;
44670;SDS011;48397;53.016;-2.260;2023-03-14T09:06:05;14.98;;;2.83;;
44670;SDS011;48397;53.016;-2.260;2023-03-14T09:08:35;28.75;;;3.42;;
44670;SDS011;48397;53.016;-2.260;2023-03-14T09:11:06;12.57;;;2.03;;
44670;SDS011;48397;53.016;-2.260;2023-03-14T09:13:35;8.10;;;1.77;;
44670;SDS011;48397;53.016;-2.260;2023-03-14T09:16:03;16.60;;;3.08;;
44670;SDS011;48397;53.016;-2.260;2023-03-14T09:18:31;16.73;;;2.95;;
44670;SDS011;48397;53.016;-2.260;2023-03-14T09:20:59;14.32;;;3.17;;
44670;SDS011;48397;53.016;-2.260;2023-03-14T09:23:27;15.38;;;2.67;;
44670;SDS011;48397;53.016;-2.260;2023-03-14T09:30:50;7.80;;;2.97;;
44670;SDS011;48397;53.016;-2.260;2023-03-14T09:33:18;9.48;;;2.42;;
44670;SDS011;48397;53.016;-2.260;2023-03-14T09:38:13;8.68;;;2.35;;
44670;SDS011;48397;53.016;-2.260;2023-03-14T09:40:43;9.38;;;1.88;;
44670;SDS011;48397;53.016;-2.260;2023-03-14T09:43:11;9.30;;;2.05;;
44670;SDS011;48397;53.016;-2.260;2023-03-14T09:45:42;15.20;;;2.10;;
44670;SDS011;48397;53.016;-2.260;2023-03-14T09:48:15;11.23;;;2.60;;
44670;SDS011;48397;53.016;-2.260;2023-03-14T09:50:46;12.20;;;3.15;;
44670;SDS011;48397;53.016;-2.260;2023-03-14T09:53:18;20.98;;;3.83;;
44670;SDS011;48397;53.016;-2.260;2023-03-14T09:55:49;11.40;;;2.65;;
44670;SDS011;48397;53.016;-2.260;2023-03-14T09:58:19;16.23;;;3.17;;
44670;SDS011;48397;53.016;-2.260;2023-03-14T10:00:49;12.40;;;3.35;;
44670;SDS011;48397;53.016;-2.260;2023-03-14T10:03:21;4.00;;;2.10;;
44670;SDS011;48397;53.016;-2.260;2023-03-14T10:05:53;14.73;;;3.58;;
44670;SDS011;48397;53.016;-2.260;2023-03-14T10:08:23;11.68;;;2.85;;
44670;SDS011;48397;53.016;-2.260;2023-03-14T10:10:50;11.57;;;3.30;;
44670;SDS011;48397;53.016;-2.260;2023-03-14T10:13:24;8.63;;;2.08;;
44670;SDS011;48397;53.016;-2.260;2023-03-14T10:16:04;11.23;;;2.85;;
44670;SDS011;48397;53.016;-2.260;2023-03-14T10:18:35;11.23;;;3.03;;
44670;SDS011;48397;53.016;-2.260;2023-03-14T10:23:45;15.20;;;1.73;;
44670;SDS011;48397;53.016;-2.260;2023-03-14T10:26:17;10.88;;;3.28;;
44670;SDS011;48397;53.016;-2.260;2023-03-14T10:28:51;7.00;;;2.70;;
44670;SDS011;48397;53.016;-2.260;2023-03-14T10:31:24;9.00;;;2.55;;
44670;SDS011;48397;53.016;-2.260;2023-03-14T10:33:59;14.10;;;3.47;;
44670;SDS011;48397;53.016;-2.260;2023-03-14T10:36:30;5.53;;;1.67;;
44670;SDS011;48397;53.016;-2.260;2023-03-14T10:44:59;6.97;;;2.30;;
44670;SDS011;48397;53.016;-2.260;2023-03-14T10:47:30;8.35;;;1.85;;
44670;SDS011;48397;53.016;-2.260;2023-03-14T10:53:00;7.45;;;2.17;;
44670;SDS011;48397;53.016;-2.260;2023-03-14T10:55:39;11.60;;;2.38;;
44670;SDS011;48397;53.016;-2.260;2023-03-14T10:58:19;11.30;;;2.88;;
44670;SDS011;48397;53.016;-2.260;2023-03-14T11:03:56;13.95;;;3.00;;
44670;SDS011;48397;53.016;-2.260;2023-03-14T11:12:29;12.27;;;1.85;;
44670;SDS011;48397;53.016;-2.260;2023-03-14T11:17:38;9.48;;;1.55;;
44670;SDS011;48397;53.016;-2.260;2023-03-14T11:20:35;5.45;;;1.80;;
44670;SDS011;48397;53.016;-2.260;2023-03-14T11:23:20;12.02;;;1.90;;
44670;SDS011;48397;53.016;-2.260;2023-03-14T11:28:55;10.15;;;2.08;;
44670;SDS011;48397;53.016;-2.260;2023-03-14T11:31:26;15.45;;;3.35;;
44670;SDS011;48397;53.016;-2.260;2023-03-14T11:33:56;12.60;;;1.90;;
44670;SDS011;48397;53.016;-2.260;2023-03-14T11:39:24;7.82;;;1.85;;
44670;SDS011;48397;53.016;-2.260;2023-03-14T11:41:59;20.05;;;3.25;;
44670;SDS011;48397;53.016;-2.260;2023-03-14T11:44:38;8.65;;;2.53;;
44670;SDS011;48397;53.016;-2.260;2023-03-14T11:47:51;6.70;;;1.92;;
44670;SDS011;48397;53.016;-2.260;2023-03-14T11:50:04;11.98;;;1.63;;
44670;SDS011;48397;53.016;-2.260;2023-03-14T11:53:42;3.72;;;1.25;;
44670;SDS011;48397;53.016;-2.260;2023-03-14T11:56:13;4.32;;;0.90;;
44670;SDS011;48397;53.016;-2.260;2023-03-14T11:58:48;15.43;;;1.58;;
44670;SDS011;48397;53.016;-2.260;2023-03-14T12:01:30;10.07;;;2.20;;
44670;SDS011;48397;53.016;-2.260;2023-03-14T12:04:55;7.22;;;1.75;;
44670;SDS011;48397;53.016;-2.260;2023-03-14T12:07:19;9.45;;;2.33;;
44670;SDS011;48397;53.016;-2.260;2023-03-14T12:09:51;9.65;;;1.92;;
44670;SDS011;48397;53.016;-2.260;2023-03-14T12:12:21;5.20;;;1.45;;
44670;SDS011;48397;53.016;-2.260;2023-03-14T12:14:52;8.73;;;2.03;;
44670;SDS011;48397;53.016;-2.260;2023-03-14T12:22:53;8.85;;;1.60;;
44670;SDS011;48397;53.016;-2.260;2023-03-14T12:25:30;3.58;;;1.23;;
44670;SDS011;48397;53.016;-2.260;2023-03-14T12:35:45;4.45;;;1.13;;
44670;SDS011;48397;53.016;-2.260;2023-03-14T12:38:43;7.40;;;1.08;;
44670;SDS011;48397;53.016;-2.260;2023-03-14T12:41:46;5.63;;;1.40;;
44670;SDS011;48397;53.016;-2.260;2023-03-14T12:46:57;4.65;;;1.90;;
44670;SDS011;48397;53.016;-2.260;2023-03-14T12:49:31;6.35;;;1.42;;
44670;SDS011;48397;53.016;-2.260;2023-03-14T12:52:02;6.05;;;1.77;;
44670;SDS011;48397;53.016;-2.260;2023-03-14T12:54:42;7.10;;;1.73;;
44670;SDS011;48397;53.016;-2.260;2023-03-14T12:57:33;9.57;;;1.67;;
44670;SDS011;48397;53.016;-2.260;2023-03-14T13:05:58;9.68;;;1.55;;
44670;SDS011;48397;53.016;-2.260;2023-03-14T13:08:38;7.45;;;1.90;;
44670;SDS011;48397;53.016;-2.260;2023-03-14T13:11:12;1.42;;;0.45;;
44670;SDS011;48397;53.016;-2.260;2023-03-14T13:13:47;6.22;;;1.20;;
44670;SDS011;48397;53.016;-2.260;2023-03-14T13:16:18;3.92;;;0.95;;
44670;SDS011;48397;53.016;-2.260;2023-03-14T13:18:48;3.80;;;1.48;;
44670;SDS011;48397;53.016;-2.260;2023-03-14T13:21:19;6.53;;;1.65;;
44670;SDS011;48397;53.016;-2.260;2023-03-14T13:31:50;4.82;;;1.20;;
44670;SDS011;48397;53.016;-2.260;2023-03-14T13:34:26;6.65;;;1.60;;
44670;SDS011;48397;53.016;-2.260;2023-03-14T13:36:58;5.82;;;1.38;;
44670;SDS011;48397;53.016;-2.260;2023-03-14T13:39:28;6.43;;;1.30;;
44670;SDS011;48397;53.016;-2.260;2023-03-14T13:42:00;9.32;;;1.00;;
44670;SDS011;48397;53.016;-2.260;2023-03-14T13:44:31;10.35;;;1.42;;
44670;SDS011;48397;53.016;-2.260;2023-03-14T13:47:02;8.15;;;1.73;;
44670;SDS011;48397;53.016;-2.260;2023-03-14T13:49:31;5.28;;;1.20;;
44670;SDS011;48397;53.016;-2.260;2023-03-14T13:52:03;4.13;;;0.93;;
44670;SDS011;48397;53.016;-2.260;2023-03-14T13:54:31;5.30;;;1.27;;
44670;SDS011;48397;53.016;-2.260;2023-03-14T13:57:00;4.25;;;0.98;;
44670;SDS011;48397;53.016;-2.260;2023-03-14T13:59:32;5.05;;;1.02;;
44670;SDS011;48397;53.016;-2.260;2023-03-14T14:02:09;10.05;;;2.10;;
44670;SDS011;48397;53.016;-2.260;2023-03-14T14:04:44;7.78;;;2.20;;
44670;SDS011;48397;53.016;-2.260;2023-03-14T14:07:15;7.68;;;1.60;;
44670;SDS011;48397;53.016;-2.260;2023-03-14T14:09:49;3.45;;;1.40;;
44670;SDS011;48397;53.016;-2.260;2023-03-14T14:15:02;7.07;;;1.27;;
44670;SDS011;48397;53.016;-2.260;2023-03-14T14:20:06;2.85;;;1.30;;
44670;SDS011;48397;53.016;-2.260;2023-03-14T14:22:40;6.95;;;1.35;;
44670;SDS011;48397;53.016;-2.260;2023-03-14T14:25:12;3.47;;;1.38;;
44670;SDS011;48397;53.016;-2.260;2023-03-14T14:27:47;5.85;;;1.27;;
44670;SDS011;48397;53.016;-2.260;2023-03-14T14:32:49;3.20;;;1.23;;
44670;SDS011;48397;53.016;-2.260;2023-03-14T14:35:22;8.27;;;1.70;;
44670;SDS011;48397;53.016;-2.260;2023-03-14T14:37:50;6.13;;;0.98;;
44670;SDS011;48397;53.016;-2.260;2023-03-14T14:40:19;7.35;;;2.08;;
44670;SDS011;48397;53.016;-2.260;2023-03-14T14:42:49;10.38;;;1.92;;
44670;SDS011;48397;53.016;-2.260;2023-03-14T14:45:18;4.45;;;1.77;;
44670;SDS011;48397;53.016;-2.260;2023-03-14T14:47:49;7.20;;;1.10;;
44670;SDS011;48397;53.016;-2.260;2023-03-14T14:50:26;7.97;;;1.10;;
44670;SDS011;48397;53.016;-2.260;2023-03-14T14:52:59;6.65;;;2.05;;
44670;SDS011;48397;53.016;-2.260;2023-03-14T14:55:32;7.93;;;1.63;;
44670;SDS011;48397;53.016;-2.260;2023-03-14T15:01:14;12.20;;;1.95;;
44670;SDS011;48397;53.016;-2.260;2023-03-14T15:03:45;5.15;;;1.00;;
44670;SDS011;48397;53.016;-2.260;2023-03-14T15:06:16;7.00;;;1.52;;
44670;SDS011;48397;53.016;-2.260;2023-03-14T15:08:45;4.97;;;1.58;;
44670;SDS011;48397;53.016;-2.260;2023-03-14T15:11:21;2.17;;;1.40;;
44670;SDS011;48397;53.016;-2.260;2023-03-14T15:13:51;4.18;;;1.10;;
44670;SDS011;48397;53.016;-2.260;2023-03-14T15:16:20;3.17;;;1.23;;
44670;SDS011;48397;53.016;-2.260;2023-03-14T15:18:57;5.88;;;1.20;;
44670;SDS011;48397;53.016;-2.260;2023-03-14T15:21:28;11.98;;;2.25;;
44670;SDS011;48397;53.016;-2.260;2023-03-14T15:26:24;8.90;;;1.65;;
44670;SDS011;48397;53.016;-2.260;2023-03-14T15:28:54;6.15;;;1.13;;
44670;SDS011;48397;53.016;-2.260;2023-03-14T15:31:22;5.22;;;1.63;;
44670;SDS011;48397;53.016;-2.260;2023-03-14T15:33:50;6.35;;;1.20;;
44670;SDS011;48397;53.016;-2.260;2023-03-14T15:36:25;8.15;;;3.05;;
44670;SDS011;48397;53.016;-2.260;2023-03-14T15:38:56;7.88;;;2.53;;
44670;SDS011;48397;53.016;-2.260;2023-03-14T15:41:24;5.63;;;1.70;;
44670;SDS011;48397;53.016;-2.260;2023-03-14T15:43:53;6.53;;;2.20;;
44670;SDS011;48397;53.016;-2.260;2023-03-14T15:46:21;5.22;;;1.60;;
44670;SDS011;48397;53.016;-2.260;2023-03-14T15:48:50;5.35;;;1.50;;
44670;SDS011;48397;53.016;-2.260;2023-03-14T15:51:18;2.85;;;1.30;;
44670;SDS011;48397;53.016;-2.260;2023-03-14T15:53:46;3.63;;;1.25;;
44670;SDS011;48397;53.016;-2.260;2023-03-14T15:56:15;4.82;;;0.88;;
44670;SDS011;48397;53.016;-2.260;2023-03-14T15:58:45;2.53;;;0.60;;
44670;SDS011;48397;53.016;-2.260;2023-03-14T16:01:13;2.58;;;0.68;;
44670;SDS011;48397;53.016;-2.260;2023-03-14T16:03:45;4.75;;;1.52;;
44670;SDS011;48397;53.016;-2.260;2023-03-14T16:08:41;2.97;;;1.80;;
44670;SDS011;48397;53.016;-2.260;2023-03-14T16:11:10;2.92;;;1.45;;
44670;SDS011;48397;53.016;-2.260;2023-03-14T16:13:39;2.30;;;1.27;;
44670;SDS011;48397;53.016;-2.260;2023-03-14T16:16:08;5.88;;;1.48;;
44670;SDS011;48397;53.016;-2.260;2023-03-14T16:18:37;3.40;;;1.23;;
44670;SDS011;48397;53.016;-2.260;2023-03-14T16:21:06;3.17;;;2.05;;
44670;SDS011;48397;53.016;-2.260;2023-03-14T16:23:37;4.53;;;1.80;;
44670;SDS011;48397;53.016;-2.260;2023-03-14T16:28:35;3.22;;;1.30;;
44670;SDS011;48397;53.016;-2.260;2023-03-14T16:33:32;2.95;;;1.35;;
44670;SDS011;48397;53.016;-2.260;2023-03-14T16:36:01;2.80;;;1.17;;
44670;SDS011;48397;53.016;-2.260;2023-03-14T16:38:32;3.63;;;1.90;;
44670;SDS011;48397;53.016;-2.260;2023-03-14T16:41:02;3.22;;;1.63;;
44670;SDS011;48397;53.016;-2.260;2023-03-14T16:43:33;4.25;;;1.30;;
44670;SDS011;48397;53.016;-2.260;2023-03-14T16:46:05;3.63;;;1.08;;
44670;SDS011;48397;53.016;-2.260;2023-03-14T16:48:35;6.05;;;1.13;;
44670;SDS011;48397;53.016;-2.260;2023-03-14T16:51:02;1.55;;;0.80;;
44670;SDS011;48397;53.016;-2.260;2023-03-14T16:53:30;0.98;;;0.65;;
44670;SDS011;48397;53.016;-2.260;2023-03-14T16:55:58;2.25;;;0.77;;
44670;SDS011;48397;53.016;-2.260;2023-03-14T17:00:56;0.52;;;0.52;;
44670;SDS011;48397;53.016;-2.260;2023-03-14T17:03:24;1.67;;;0.60;;
44670;SDS011;48397;53.016;-2.260;2023-03-14T17:05:54;2.55;;;0.63;;
44670;SDS011;48397;53.016;-2.260;2023-03-14T17:08:24;0.73;;;0.60;;